WAT543 KJAX-PAJN
Flight info
| Callsign | WAT543 |
|---|---|
| Flight time | N/A |
| Altitude | 33000 |
| Route | BRSTL1 BAXLY KERLY Q65 ENGRA Q50 IIU J89 OBK J101 BAE J89 DLH Q834 OTLUR Q845 KOBID Q908 TAGOT Q819 YEGGA Q862 YQU J515 LEPET MUXAT MUXAT Q969 MITOM |
| Aircraft | B77W/H-SDE1E2E3FGHIJ2J3J4J5M1RWXY/LB1D1 |
Departure
| Time | N/A |
|---|---|
| Airport | Jacksonville International Airport (KJAX) |
Arrival
| Time | 2026-04-19 05:19 |
|---|---|
| Airport | Juneau International Airport (PAJN) |
| Time | Latitude | Longitude | Altitude | Speed | Heading |
|---|---|---|---|---|---|
| 2026-04-19 04:51 | 58.28152 | -132.09811 | 23787 ft | 397 kts | 259° |
| 2026-04-19 04:52 | 58.27787 | -132.14999 | 23274 ft | 394 kts | 259° |
| 2026-04-19 04:52 | 58.27422 | -132.20134 | 22772 ft | 391 kts | 259° |
| 2026-04-19 04:52 | 58.27062 | -132.25150 | 22297 ft | 388 kts | 259° |
| 2026-04-19 04:52 | 58.26694 | -132.30215 | 21797 ft | 386 kts | 259° |
| 2026-04-19 04:53 | 58.26331 | -132.35197 | 21294 ft | 383 kts | 260° |
| 2026-04-19 04:53 | 58.25963 | -132.40205 | 20796 ft | 381 kts | 260° |
| 2026-04-19 04:53 | 58.25598 | -132.45143 | 20304 ft | 379 kts | 260° |
| 2026-04-19 04:53 | 58.25235 | -132.50020 | 19811 ft | 376 kts | 259° |
| 2026-04-19 04:54 | 58.24869 | -132.54906 | 19319 ft | 373 kts | 260° |
| 2026-04-19 04:54 | 58.24504 | -132.59761 | 18832 ft | 370 kts | 260° |
| 2026-04-19 04:54 | 58.24142 | -132.64534 | 18354 ft | 368 kts | 260° |
| 2026-04-19 04:54 | 58.23780 | -132.69304 | 17899 ft | 366 kts | 259° |
| 2026-04-19 04:55 | 58.23417 | -132.74051 | 17393 ft | 363 kts | 259° |
| 2026-04-19 04:55 | 58.23051 | -132.78804 | 16930 ft | 361 kts | 259° |
| 2026-04-19 04:55 | 58.22695 | -132.83423 | 16460 ft | 359 kts | 259° |
| 2026-04-19 04:55 | 58.22329 | -132.88132 | 16005 ft | 358 kts | 259° |
| 2026-04-19 04:56 | 58.21967 | -132.92781 | 15513 ft | 357 kts | 259° |
| 2026-04-19 04:56 | 58.21604 | -132.97406 | 15029 ft | 355 kts | 259° |
| 2026-04-19 04:56 | 58.21244 | -133.01976 | 14544 ft | 352 kts | 258° |
| 2026-04-19 04:56 | 58.20884 | -133.06532 | 14068 ft | 350 kts | 258° |
| 2026-04-19 04:57 | 58.20523 | -133.11063 | 13588 ft | 350 kts | 259° |
| 2026-04-19 04:57 | 58.20161 | -133.15602 | 13090 ft | 349 kts | 259° |
| 2026-04-19 04:57 | 58.19799 | -133.20102 | 12574 ft | 349 kts | 259° |
| 2026-04-19 04:57 | 58.19435 | -133.24615 | 12070 ft | 348 kts | 259° |
| 2026-04-19 04:58 | 58.19070 | -133.29131 | 11557 ft | 347 kts | 259° |
| 2026-04-19 04:58 | 58.18704 | -133.33630 | 11053 ft | 346 kts | 259° |
| 2026-04-19 04:58 | 58.18341 | -133.38072 | 10694 ft | 338 kts | 259° |
| 2026-04-19 04:58 | 58.17993 | -133.42333 | 10631 ft | 315 kts | 259° |
| 2026-04-19 04:59 | 58.17666 | -133.46313 | 10608 ft | 297 kts | 259° |
| 2026-04-19 04:59 | 58.17358 | -133.50038 | 10479 ft | 286 kts | 259° |
| 2026-04-19 04:59 | 58.17051 | -133.53719 | 10366 ft | 275 kts | 258° |
| 2026-04-19 04:59 | 58.16762 | -133.57188 | 10249 ft | 265 kts | 258° |
| 2026-04-19 05:00 | 58.16478 | -133.60580 | 10140 ft | 254 kts | 259° |
| 2026-04-19 05:00 | 58.16204 | -133.63841 | 10039 ft | 259 kts | 259° |
| 2026-04-19 05:00 | 58.15911 | -133.67282 | 9773 ft | 269 kts | 258° |
| 2026-04-19 05:00 | 58.15617 | -133.70773 | 9376 ft | 271 kts | 258° |
| 2026-04-19 05:01 | 58.15322 | -133.74271 | 9045 ft | 270 kts | 258° |
| 2026-04-19 05:01 | 58.15023 | -133.77794 | 8704 ft | 269 kts | 258° |
| 2026-04-19 05:01 | 58.14727 | -133.81267 | 8382 ft | 268 kts | 257° |
| 2026-04-19 05:01 | 58.14430 | -133.84741 | 8059 ft | 265 kts | 257° |
| 2026-04-19 05:02 | 58.14139 | -133.88123 | 7727 ft | 262 kts | 258° |
| 2026-04-19 05:02 | 58.13851 | -133.91472 | 7424 ft | 258 kts | 257° |
| 2026-04-19 05:02 | 58.13564 | -133.94794 | 7128 ft | 255 kts | 257° |
| 2026-04-19 05:02 | 58.13278 | -133.98093 | 6802 ft | 253 kts | 257° |
| 2026-04-19 05:03 | 58.12994 | -134.01361 | 6516 ft | 250 kts | 257° |
| 2026-04-19 05:03 | 58.12715 | -134.04555 | 6214 ft | 248 kts | 257° |
| 2026-04-19 05:03 | 58.12434 | -134.07764 | 5916 ft | 245 kts | 257° |
| 2026-04-19 05:03 | 58.12158 | -134.10913 | 5619 ft | 243 kts | 257° |
| 2026-04-19 05:04 | 58.12033 | -134.14090 | 5421 ft | 240 kts | 271° |
| 2026-04-19 05:04 | 58.12234 | -134.17091 | 5411 ft | 226 kts | 275° |
| 2026-04-19 05:04 | 58.12455 | -134.19931 | 5420 ft | 212 kts | 275° |
| 2026-04-19 05:04 | 58.12658 | -134.22580 | 5404 ft | 197 kts | 274° |
| 2026-04-19 05:05 | 58.12849 | -134.25143 | 5420 ft | 195 kts | 274° |
| 2026-04-19 05:05 | 58.13037 | -134.27646 | 5411 ft | 194 kts | 274° |
| 2026-04-19 05:05 | 58.13223 | -134.30158 | 5409 ft | 194 kts | 274° |
| 2026-04-19 05:05 | 58.13410 | -134.32657 | 5452 ft | 192 kts | 274° |
| 2026-04-19 05:06 | 58.13596 | -134.35172 | 5420 ft | 192 kts | 275° |
| 2026-04-19 05:06 | 58.13785 | -134.37711 | 5416 ft | 192 kts | 274° |
| 2026-04-19 05:06 | 58.13968 | -134.40189 | 5401 ft | 193 kts | 275° |
| 2026-04-19 05:06 | 58.14154 | -134.42699 | 5417 ft | 192 kts | 274° |
| 2026-04-19 05:07 | 58.14337 | -134.45195 | 5431 ft | 192 kts | 274° |
| 2026-04-19 05:07 | 58.14520 | -134.47693 | 5417 ft | 192 kts | 275° |
| 2026-04-19 05:07 | 58.14703 | -134.50191 | 5416 ft | 192 kts | 274° |
| 2026-04-19 05:07 | 58.14884 | -134.52676 | 5426 ft | 192 kts | 274° |
| 2026-04-19 05:08 | 58.15066 | -134.55173 | 5425 ft | 192 kts | 274° |
| 2026-04-19 05:08 | 58.15430 | -134.60197 | 5444 ft | 195 kts | 274° |
| 2026-04-19 05:08 | 58.15611 | -134.62707 | 5444 ft | 192 kts | 274° |
| 2026-04-19 05:09 | 58.15792 | -134.65233 | 5444 ft | 191 kts | 274° |
| 2026-04-19 05:09 | 58.15972 | -134.67732 | 5443 ft | 192 kts | 274° |
| 2026-04-19 05:09 | 58.16151 | -134.70233 | 5449 ft | 192 kts | 274° |
| 2026-04-19 05:09 | 58.16327 | -134.72711 | 5451 ft | 192 kts | 274° |
| 2026-04-19 05:10 | 58.16505 | -134.75217 | 5446 ft | 192 kts | 274° |
| 2026-04-19 05:10 | 58.16683 | -134.77725 | 5458 ft | 192 kts | 274° |
| 2026-04-19 05:10 | 58.16858 | -134.80188 | 5461 ft | 192 kts | 274° |
| 2026-04-19 05:10 | 58.17033 | -134.82684 | 5474 ft | 192 kts | 274° |
| 2026-04-19 05:11 | 58.17208 | -134.85158 | 5448 ft | 191 kts | 274° |
| 2026-04-19 05:11 | 58.17383 | -134.87653 | 5448 ft | 191 kts | 274° |
| 2026-04-19 05:11 | 58.17558 | -134.90158 | 5457 ft | 191 kts | 274° |
| 2026-04-19 05:11 | 58.17836 | -134.92587 | 5449 ft | 191 kts | 288° |
| 2026-04-19 05:12 | 58.18535 | -134.94745 | 5458 ft | 195 kts | 309° |
| 2026-04-19 05:12 | 58.19611 | -134.96333 | 5438 ft | 199 kts | 330° |
| 2026-04-19 05:12 | 58.20960 | -134.97133 | 5206 ft | 204 kts | 352° |
| 2026-04-19 05:12 | 58.22348 | -134.96941 | 4957 ft | 201 kts | 16° |
| 2026-04-19 05:13 | 58.23663 | -134.96030 | 4735 ft | 202 kts | 21° |
| 2026-04-19 05:13 | 58.24979 | -134.95181 | 4551 ft | 200 kts | 18° |
| 2026-04-19 05:13 | 58.26306 | -134.94418 | 4377 ft | 199 kts | 17° |
| 2026-04-19 05:13 | 58.27613 | -134.93684 | 4183 ft | 199 kts | 17° |
| 2026-04-19 05:14 | 58.28932 | -134.92941 | 3973 ft | 193 kts | 18° |
| 2026-04-19 05:14 | 58.30199 | -134.92229 | 3784 ft | 187 kts | 18° |
| 2026-04-19 05:14 | 58.31406 | -134.91547 | 3601 ft | 180 kts | 18° |
| 2026-04-19 05:14 | 58.32599 | -134.90874 | 3419 ft | 175 kts | 18° |
| 2026-04-19 05:15 | 58.33745 | -134.90227 | 3255 ft | 175 kts | 18° |
| 2026-04-19 05:15 | 58.34872 | -134.89423 | 3068 ft | 172 kts | 35° |
| 2026-04-19 05:15 | 58.35678 | -134.87823 | 2888 ft | 167 kts | 65° |
| 2026-04-19 05:15 | 58.35969 | -134.85777 | 2829 ft | 154 kts | 90° |
| 2026-04-19 05:16 | 58.36005 | -134.83733 | 2829 ft | 160 kts | 91° |
| 2026-04-19 05:16 | 58.36004 | -134.81467 | 2604 ft | 184 kts | 92° |
| 2026-04-19 05:16 | 58.35988 | -134.78949 | 2267 ft | 190 kts | 92° |
| 2026-04-19 05:16 | 58.35972 | -134.76538 | 1972 ft | 174 kts | 92° |
| 2026-04-19 05:17 | 58.35961 | -134.74297 | 1577 ft | 167 kts | 90° |
| 2026-04-19 05:17 | 58.36061 | -134.72104 | 1321 ft | 168 kts | 83° |
| 2026-04-19 05:17 | 58.36280 | -134.69925 | 1345 ft | 167 kts | 79° |
| 2026-04-19 05:17 | 58.36516 | -134.67766 | 1322 ft | 165 kts | 82° |
| 2026-04-19 05:18 | 58.36541 | -134.65636 | 1084 ft | 161 kts | 99° |
| 2026-04-19 05:18 | 58.36322 | -134.63551 | 787 ft | 160 kts | 103° |
| 2026-04-19 05:18 | 58.36038 | -134.61507 | 412 ft | 161 kts | 104° |
| 2026-04-19 05:18 | 58.35758 | -134.59486 | 68 ft | 154 kts | 105° |
| 2026-04-19 05:19 | 58.35494 | -134.57655 | -15 ft | 130 kts | 104° |
| 2026-04-19 05:19 | 58.35356 | -134.56587 | -21 ft | 52 kts | 104° |
| 2026-04-19 05:19 | 58.35267 | -134.55968 | -25 ft | 44 kts | 105° |
| 2026-04-19 05:19 | 58.35202 | -134.55522 | -25 ft | 21 kts | 104° |
| 2026-04-19 05:20 | 58.35202 | -134.55295 | -26 ft | 15 kts | 56° |
| 2026-04-19 05:20 | 58.35281 | -134.55269 | -26 ft | 11 kts | 313° |
| 2026-04-19 05:20 | 58.35303 | -134.55400 | -26 ft | 9 kts | 282° |
| 2026-04-19 05:20 | 58.35317 | -134.55515 | -26 ft | 10 kts | 282° |
| 2026-04-19 05:21 | 58.35339 | -134.55692 | -26 ft | 15 kts | 283° |
| 2026-04-19 05:21 | 58.35366 | -134.55893 | -26 ft | 16 kts | 284° |
| 2026-04-19 05:21 | 58.35396 | -134.56111 | -22 ft | 17 kts | 285° |
| 2026-04-19 05:21 | 58.35425 | -134.56284 | -22 ft | 10 kts | 291° |
| 2026-04-19 05:22 | 58.35443 | -134.56461 | -21 ft | 16 kts | 281° |
| 2026-04-19 05:22 | 58.35472 | -134.56661 | -20 ft | 15 kts | 286° |
| 2026-04-19 05:22 | 58.35506 | -134.56894 | -19 ft | 20 kts | 285° |
| 2026-04-19 05:22 | 58.35541 | -134.57147 | -16 ft | 18 kts | 284° |
| 2026-04-19 05:23 | 58.35572 | -134.57381 | -14 ft | 18 kts | 284° |
| 2026-04-19 05:23 | 58.35606 | -134.57619 | -13 ft | 18 kts | 284° |
| 2026-04-19 05:23 | 58.35638 | -134.57846 | -12 ft | 16 kts | 285° |
| 2026-04-19 05:23 | 58.35665 | -134.58040 | -11 ft | 14 kts | 284° |
| 2026-04-19 05:24 | 58.35690 | -134.58217 | -12 ft | 13 kts | 286° |
| 2026-04-19 05:24 | 58.35745 | -134.58307 | -12 ft | 9 kts | 330° |
| 2026-04-19 05:24 | 58.35778 | -134.58403 | -14 ft | 9 kts | 285° |
| 2026-04-19 05:24 | 58.35802 | -134.58491 | -15 ft | 5 kts | 353° |
| 2026-04-19 05:25 | 58.35828 | -134.58466 | -14 ft | 2 kts | 43° |
| 2026-04-19 05:25 | 58.35836 | -134.58449 | -14 ft | 0 kts | 45° |